createdAt,value
2022-10-11T03:41:15.765Z,3.05
2022-10-11T03:47:21.118Z,3.08
2022-10-11T03:50:24.745Z,2.97
2022-10-11T03:53:27.855Z,3.00
2022-10-11T03:56:32.689Z,3.47
2022-10-11T03:59:35.188Z,3.22
2022-10-11T04:02:39.346Z,2.40
2022-10-11T04:05:42.270Z,3.12
2022-10-11T04:08:45.576Z,2.17
2022-10-11T04:11:48.334Z,2.30
2022-10-11T04:14:50.912Z,2.70
2022-10-11T04:17:53.612Z,3.20
2022-10-11T04:20:56.169Z,2.67
2022-10-11T04:23:59.269Z,2.70
2022-10-11T04:27:01.821Z,2.62
2022-10-11T04:30:05.086Z,3.10
2022-10-11T04:36:10.597Z,2.65
2022-10-11T04:39:13.065Z,2.20
2022-10-11T04:42:16.460Z,3.05
2022-10-11T04:48:21.657Z,2.97
2022-10-11T04:51:25.022Z,2.50
2022-10-11T04:54:28.006Z,2.87
2022-10-11T04:57:30.561Z,2.75
2022-10-11T05:00:33.335Z,2.85
2022-10-11T05:03:35.856Z,2.97
2022-10-11T05:06:38.743Z,2.87
2022-10-11T05:09:41.449Z,2.92
2022-10-11T05:12:44.275Z,2.97
2022-10-11T05:15:46.838Z,3.20
2022-10-11T05:18:49.818Z,3.35
2022-10-11T05:21:55.487Z,3.03
2022-10-11T05:24:58.937Z,3.20
2022-10-11T05:31:04.577Z,2.73
2022-10-11T05:34:07.224Z,2.95
2022-10-11T05:37:10.048Z,3.03
2022-10-11T05:40:13.077Z,2.97
2022-10-11T05:43:16.270Z,3.97
2022-10-11T05:46:18.821Z,3.08
2022-10-11T05:49:21.561Z,3.40
2022-10-11T05:52:24.109Z,3.37
2022-10-11T05:55:26.884Z,3.75
2022-10-11T05:58:29.375Z,3.12
2022-10-11T06:01:32.625Z,3.28
2022-10-11T06:04:39.374Z,2.60
2022-10-11T06:07:41.934Z,2.95
2022-10-11T06:10:44.923Z,3.00
2022-10-11T06:13:48.806Z,3.42
2022-10-11T06:16:52.257Z,3.25
2022-10-11T06:19:55.491Z,3.03
2022-10-11T06:22:58.898Z,2.60
2022-10-11T06:29:07.200Z,2.20
2022-10-11T06:32:09.697Z,3.05
2022-10-11T06:35:12.578Z,2.72
2022-10-11T06:38:15.487Z,2.70
2022-10-11T06:44:22.426Z,2.15
2022-10-11T06:47:25.327Z,2.80
2022-10-11T06:50:54.304Z,3.28
2022-10-11T06:53:52.820Z,3.03
2022-10-11T06:56:55.555Z,2.78
2022-10-11T07:03:01.025Z,2.87
2022-10-11T07:09:11.435Z,3.20
2022-10-11T07:12:14.489Z,2.90
2022-10-11T07:15:17.260Z,2.70
2022-10-11T07:18:20.157Z,3.08
2022-10-11T07:21:23.108Z,3.25
2022-10-11T07:24:26.206Z,2.90
2022-10-11T07:27:28.928Z,3.00
2022-10-11T07:30:32.260Z,3.97
2022-10-11T07:33:34.864Z,2.87
2022-10-11T07:36:37.627Z,3.17
2022-10-11T07:39:40.515Z,3.03
2022-10-11T07:42:43.467Z,3.00
2022-10-11T07:45:48.373Z,3.37
2022-10-11T07:48:51.249Z,2.58
2022-10-11T07:51:53.773Z,2.90
2022-10-11T07:54:56.475Z,3.30
2022-10-11T07:57:59.009Z,2.33
2022-10-11T08:04:04.943Z,2.23
2022-10-11T08:07:07.448Z,2.92
2022-10-11T08:10:10.700Z,2.67
2022-10-11T08:16:16.397Z,2.70
2022-10-11T08:19:23.143Z,2.53
2022-10-11T08:22:25.990Z,2.53
2022-10-11T08:25:28.551Z,2.60
2022-10-11T08:28:31.497Z,2.97
2022-10-11T08:31:36.035Z,2.50
2022-10-11T08:34:38.798Z,3.00
2022-10-11T08:37:41.389Z,3.47
2022-10-11T08:40:53.883Z,3.40
2022-10-11T08:44:46.182Z,3.22
2022-10-11T08:48:02.604Z,3.40
2022-10-11T08:51:20.821Z,2.95
2022-10-11T08:54:40.433Z,3.30
2022-10-11T08:57:46.071Z,3.85
2022-10-11T09:00:53.795Z,4.43
2022-10-11T09:04:00.004Z,4.18
2022-10-11T09:07:16.773Z,3.80
2022-10-11T09:10:41.673Z,4.75
2022-10-11T09:14:07.392Z,4.68
2022-10-11T09:17:37.395Z,4.32
2022-10-11T09:20:40.263Z,4.40
2022-10-11T09:23:48.747Z,4.00
2022-10-11T09:26:59.550Z,4.07
2022-10-11T09:30:17.562Z,4.65
2022-10-11T09:33:32.287Z,5.15
2022-10-11T09:36:44.962Z,4.10
2022-10-11T09:40:01.007Z,4.40
2022-10-11T09:43:03.576Z,3.85
2022-10-11T09:46:45.719Z,4.78
2022-10-11T09:49:53.238Z,3.95
2022-10-11T09:53:00.000Z,3.35
2022-10-11T09:56:05.287Z,4.30
2022-10-11T09:59:21.559Z,4.25
2022-10-11T10:02:25.083Z,3.90
2022-10-11T10:05:31.223Z,4.68
2022-10-11T10:08:34.884Z,4.68
2022-10-11T10:11:40.240Z,4.25
2022-10-11T10:14:42.823Z,4.15
2022-10-11T10:20:59.443Z,4.37
2022-10-11T10:24:07.265Z,4.50
2022-10-11T10:27:28.985Z,4.25
2022-10-11T10:30:35.341Z,4.35
2022-10-11T10:33:38.345Z,5.00
2022-10-11T10:36:46.552Z,4.97
2022-10-11T10:40:02.485Z,4.28
2022-10-11T10:43:08.011Z,5.15
2022-10-11T10:46:47.741Z,4.90
2022-10-11T10:50:07.278Z,5.30
2022-10-11T10:53:31.746Z,5.85
2022-10-11T10:56:51.141Z,4.78
2022-10-11T11:00:12.244Z,5.57
2022-10-11T11:03:26.343Z,5.10
2022-10-11T11:06:36.624Z,5.25
2022-10-11T11:09:51.887Z,4.85
2022-10-11T11:13:23.646Z,4.62
2022-10-11T11:16:49.411Z,4.85
2022-10-11T11:20:04.147Z,4.90
2022-10-11T11:23:42.336Z,5.68
2022-10-11T11:26:48.653Z,4.65
2022-10-11T11:30:03.671Z,5.12
2022-10-11T11:33:14.560Z,4.78
2022-10-11T11:36:37.217Z,5.43
2022-10-11T11:39:45.893Z,5.20
2022-10-11T11:42:53.704Z,5.32
2022-10-11T11:46:18.705Z,5.00
2022-10-11T11:49:29.386Z,4.85
2022-10-11T11:52:40.664Z,5.07
2022-10-11T11:56:08.880Z,5.95
2022-10-11T11:59:26.178Z,5.22
2022-10-11T12:02:31.804Z,4.90
2022-10-11T12:05:36.234Z,5.68
2022-10-11T12:08:41.186Z,5.57
2022-10-11T12:11:57.711Z,5.53
2022-10-11T12:15:09.647Z,4.47
2022-10-11T12:18:18.107Z,5.13
2022-10-11T12:21:31.899Z,5.45
2022-10-11T12:24:57.075Z,5.40
2022-10-11T12:28:02.069Z,5.40
2022-10-11T12:31:17.053Z,5.75
2022-10-11T12:37:51.883Z,5.40
2022-10-11T12:41:09.765Z,6.03
2022-10-11T12:44:18.389Z,5.47
2022-10-11T12:47:39.140Z,5.60
2022-10-11T12:50:53.186Z,5.45
2022-10-11T12:54:26.663Z,5.35
2022-10-11T12:57:47.454Z,5.25
2022-10-11T13:00:55.074Z,5.25
2022-10-11T13:04:03.442Z,5.03
2022-10-11T13:07:15.661Z,5.40
2022-10-11T13:10:33.067Z,5.60
2022-10-11T13:13:47.499Z,4.72
2022-10-11T13:16:58.752Z,5.50
2022-10-11T13:20:36.280Z,5.00
2022-10-11T13:23:41.681Z,5.22
2022-10-11T13:26:46.708Z,5.50
2022-10-11T13:29:51.160Z,5.12
2022-10-11T13:32:54.221Z,4.80
2022-10-11T13:35:57.177Z,4.32
2022-10-11T13:39:01.170Z,4.35
2022-10-11T13:42:11.698Z,4.80
2022-10-11T13:45:18.513Z,5.03
2022-10-11T13:48:22.315Z,4.68
2022-10-11T13:51:34.279Z,4.53
2022-10-11T13:55:09.947Z,4.05
2022-10-11T13:58:21.541Z,4.65
2022-10-11T14:01:36.166Z,5.12
2022-10-11T14:04:40.992Z,4.55
2022-10-11T14:07:47.146Z,4.35
2022-10-11T14:10:56.427Z,4.65
2022-10-11T14:13:59.946Z,4.72
2022-10-11T14:17:10.916Z,5.03
2022-10-11T14:20:21.606Z,4.85
2022-10-11T14:23:26.459Z,4.65
2022-10-11T14:26:38.140Z,4.90
2022-10-11T14:30:00.296Z,4.97
2022-10-11T14:33:07.480Z,4.80
2022-10-11T14:36:12.476Z,4.87
2022-10-11T14:39:20.682Z,4.40
2022-10-11T14:42:23.695Z,4.93
2022-10-11T14:45:26.276Z,4.93
2022-10-11T14:48:53.649Z,4.90
2022-10-11T14:51:53.840Z,5.07
2022-10-11T14:54:56.673Z,4.72
2022-10-11T15:01:01.929Z,5.10
2022-10-11T15:07:07.255Z,5.47
2022-10-11T15:10:22.438Z,4.62
2022-10-11T15:13:25.451Z,5.57
2022-10-11T15:16:27.936Z,4.85
2022-10-11T15:19:30.783Z,5.20
2022-10-11T15:22:33.254Z,5.45
2022-10-11T15:28:38.875Z,5.37
2022-10-11T15:31:41.744Z,4.80
2022-10-11T15:34:44.208Z,5.00
